Terminal Aerodrome Forecast
Issued by NWS

Home | Current Version | Previous Version | Text Only | Print | Product List | Glossary On
Versions: 1 2 3 4 5 6 7 8 9 10 11 12 13 14 15 16 17 18 19 20 21 22 23
000
FTUS43 KIND 262300
TAFBMG
TAF
KBMG 262323Z 2700/2724 03005KT P6SM OVC100
     FM270300 02007KT P6SM SCT040 OVC080
      TEMPO 2705/2708 4SM -SN OVC040
     FM270800 35008KT P6SM BKN015 OVC080
     FM271300 33009KT P6SM OVC015
     FM272000 30012KT P6SM OVC025
      AMD LTD TO CLD VIS AND WIND 2702/2714=

USA.gov is the U.S. government's official web portal to all federal, state and local government web resources and services.